KLM135 EHAM-VHHH
Flight info
| Callsign | KLM135 |
|---|---|
| Flight time | N/A |
| Altitude | 33000 |
| Route | ARNEM L620 HMM DCT NOMKA DCT OMELO DCT ODLIV DCT OMIFU DCT SAGAN DCT ETNOG DCT ROMAG DCT UDROS/N0489F350 UM859 KARDE UL851 TBN UM11 REBLO M11 LUSAL N199 RASAM L88 METKA B476 DARVA/K0909F350 T898 NUHEF/K0906F370 T898 OGOLI N193 SR L163 TISIB L141 KAMUD/K0900S1130 W186 SADAN Y1 NUPNI/K0895S1190 Y1 OMBON W245 OVRAL B330 KWE W181 DUDIT A599 POU R473 SIERA |
| Aircraft | A35K/H-SDE2E3GHIJ3J4J5LM1ORWXY/LB1D1 |
Departure
| Time | 2026-05-04 20:04 |
|---|---|
| Airport | Amsterdam Airport Schiphol (EHAM) |
Arrival
| Time | N/A |
|---|---|
| Airport | Hong Kong International Airport (VHHH) |
| Time | Latitude | Longitude | Altitude | Speed | Heading |
|---|---|---|---|---|---|
| 2026-05-04 19:41 | 52.31352 | 4.75568 | 5 ft | 0 kts | 86° |
| 2026-05-04 19:52 | 52.31352 | 4.75557 | 5 ft | 3 kts | 86° |
| 2026-05-04 19:52 | 52.31351 | 4.75527 | 5 ft | 3 kts | 86° |
| 2026-05-04 19:53 | 52.31346 | 4.75496 | 5 ft | 3 kts | 52° |
| 2026-05-04 19:53 | 52.31332 | 4.75474 | 6 ft | 3 kts | 17° |
| 2026-05-04 19:53 | 52.31323 | 4.75470 | 7 ft | 0 kts | 0° |
| 2026-05-04 19:54 | 52.31330 | 4.75469 | 7 ft | 3 kts | 356° |
| 2026-05-04 19:55 | 52.31369 | 4.75457 | 5 ft | 8 kts | 342° |
| 2026-05-04 19:55 | 52.31415 | 4.75384 | 5 ft | 9 kts | 283° |
| 2026-05-04 19:55 | 52.31417 | 4.75291 | 5 ft | 7 kts | 270° |
| 2026-05-04 19:55 | 52.31416 | 4.75207 | 5 ft | 8 kts | 268° |
| 2026-05-04 19:56 | 52.31413 | 4.75105 | 5 ft | 10 kts | 267° |
| 2026-05-04 19:56 | 52.31409 | 4.74983 | 5 ft | 11 kts | 266° |
| 2026-05-04 19:56 | 52.31404 | 4.74846 | 5 ft | 13 kts | 267° |
| 2026-05-04 19:56 | 52.31401 | 4.74693 | 5 ft | 15 kts | 269° |
| 2026-05-04 19:57 | 52.31395 | 4.74502 | 5 ft | 19 kts | 266° |
| 2026-05-04 19:57 | 52.31410 | 4.74297 | 5 ft | 14 kts | 314° |
| 2026-05-04 19:57 | 52.31488 | 4.74287 | 5 ft | 12 kts | 8° |
| 2026-05-04 19:57 | 52.31581 | 4.74302 | 5 ft | 15 kts | 4° |
| 2026-05-04 19:58 | 52.31689 | 4.74309 | 5 ft | 17 kts | 3° |
| 2026-05-04 19:58 | 52.31814 | 4.74322 | 5 ft | 19 kts | 4° |
| 2026-05-04 19:58 | 52.31952 | 4.74336 | 5 ft | 20 kts | 2° |
| 2026-05-04 19:58 | 52.32034 | 4.74203 | 5 ft | 17 kts | 271° |
| 2026-05-04 19:59 | 52.32039 | 4.73983 | 3 ft | 22 kts | 272° |
| 2026-05-04 19:59 | 52.32045 | 4.73726 | 5 ft | 23 kts | 273° |
| 2026-05-04 19:59 | 52.32061 | 4.73462 | 5 ft | 23 kts | 285° |
| 2026-05-04 19:59 | 52.32157 | 4.73262 | 5 ft | 23 kts | 319° |
| 2026-05-04 20:00 | 52.32276 | 4.73092 | 5 ft | 23 kts | 319° |
| 2026-05-04 20:00 | 52.32395 | 4.72922 | 5 ft | 23 kts | 319° |
| 2026-05-04 20:00 | 52.32516 | 4.72752 | 5 ft | 23 kts | 319° |
| 2026-05-04 20:00 | 52.32636 | 4.72585 | 5 ft | 23 kts | 319° |
| 2026-05-04 20:01 | 52.32746 | 4.72395 | 5 ft | 23 kts | 311° |
| 2026-05-04 20:01 | 52.32852 | 4.72193 | 5 ft | 23 kts | 310° |
| 2026-05-04 20:01 | 52.32959 | 4.71993 | 5 ft | 23 kts | 311° |
| 2026-05-04 20:01 | 52.33069 | 4.71797 | 5 ft | 23 kts | 312° |
| 2026-05-04 20:02 | 52.33144 | 4.71576 | 5 ft | 22 kts | 261° |
| 2026-05-04 20:02 | 52.33051 | 4.71385 | 5 ft | 22 kts | 223° |
| 2026-05-04 20:02 | 52.32935 | 4.71219 | 5 ft | 19 kts | 221° |
| 2026-05-04 20:02 | 52.32869 | 4.71069 | 4 ft | 16 kts | 256° |
| 2026-05-04 20:03 | 52.32886 | 4.70909 | 4 ft | 10 kts | 327° |
| 2026-05-04 20:03 | 52.32923 | 4.70900 | 3 ft | 1 kts | 0° |
| 2026-05-04 20:03 | 52.32924 | 4.70900 | 3 ft | 0 kts | 2° |
| 2026-05-04 20:04 | 52.33000 | 4.70906 | 2 ft | 39 kts | 3° |
| 2026-05-04 20:04 | 52.33510 | 4.70952 | 4 ft | 106 kts | 3° |
| 2026-05-04 20:04 | 52.34438 | 4.71034 | 18 ft | 161 kts | 5° |
| 2026-05-04 20:04 | 52.35580 | 4.71137 | 624 ft | 165 kts | 4° |
| 2026-05-04 20:05 | 52.36721 | 4.71203 | 1321 ft | 158 kts | 3° |
| 2026-05-04 20:05 | 52.37815 | 4.71264 | 1721 ft | 166 kts | 6° |
| 2026-05-04 20:05 | 52.39029 | 4.71408 | 1950 ft | 183 kts | 6° |
| 2026-05-04 20:05 | 52.40361 | 4.71566 | 2181 ft | 202 kts | 6° |
| 2026-05-04 20:06 | 52.41844 | 4.71728 | 2371 ft | 224 kts | 5° |
| 2026-05-04 20:06 | 52.43465 | 4.71890 | 2631 ft | 242 kts | 4° |
| 2026-05-04 20:06 | 52.45188 | 4.72055 | 3105 ft | 251 kts | 3° |
| 2026-05-04 20:06 | 52.46953 | 4.72222 | 3670 ft | 257 kts | 3° |
| 2026-05-04 20:07 | 52.48756 | 4.72392 | 4249 ft | 261 kts | 2° |
| 2026-05-04 20:07 | 52.50578 | 4.72622 | 4837 ft | 266 kts | 7° |
| 2026-05-04 20:07 | 52.52342 | 4.73592 | 5402 ft | 271 kts | 30° |
| 2026-05-04 20:07 | 52.53717 | 4.75728 | 5997 ft | 277 kts | 57° |
| 2026-05-04 20:08 | 52.54382 | 4.78694 | 6575 ft | 280 kts | 83° |
| 2026-05-04 20:08 | 52.54286 | 4.81893 | 7189 ft | 283 kts | 98° |
| 2026-05-04 20:08 | 52.53804 | 4.85040 | 7773 ft | 286 kts | 115° |
| 2026-05-04 20:08 | 52.52666 | 4.87699 | 8385 ft | 286 kts | 140° |
| 2026-05-04 20:09 | 52.50998 | 4.89398 | 9112 ft | 283 kts | 156° |
| 2026-05-04 20:09 | 52.49280 | 4.91014 | 9767 ft | 286 kts | 148° |
| 2026-05-04 20:09 | 52.47614 | 4.92868 | 10295 ft | 295 kts | 147° |
| 2026-05-04 20:09 | 52.45908 | 4.94828 | 10591 ft | 311 kts | 147° |
| 2026-05-04 20:10 | 52.44064 | 4.96945 | 10884 ft | 327 kts | 149° |
| 2026-05-04 20:10 | 52.42166 | 4.99052 | 11178 ft | 342 kts | 149° |
| 2026-05-04 20:10 | 52.40132 | 5.01330 | 11469 ft | 357 kts | 147° |
| 2026-05-04 20:10 | 52.38094 | 5.03653 | 11780 ft | 370 kts | 147° |
| 2026-05-04 20:11 | 52.35944 | 5.06144 | 12065 ft | 383 kts | 145° |
| 2026-05-04 20:11 | 52.33950 | 5.09111 | 12428 ft | 393 kts | 131° |
| 2026-05-04 20:11 | 52.32480 | 5.12902 | 12897 ft | 399 kts | 116° |
| 2026-05-04 20:11 | 52.31418 | 5.17121 | 13463 ft | 403 kts | 113° |
| 2026-05-04 20:12 | 52.30379 | 5.21427 | 13965 ft | 407 kts | 113° |
| 2026-05-04 20:12 | 52.29338 | 5.25749 | 14494 ft | 410 kts | 113° |
| 2026-05-04 20:12 | 52.28292 | 5.30100 | 15010 ft | 414 kts | 114° |
| 2026-05-04 20:12 | 52.27233 | 5.34505 | 15470 ft | 419 kts | 114° |
| 2026-05-04 20:13 | 52.26215 | 5.38745 | 15913 ft | 422 kts | 113° |
| 2026-05-04 20:13 | 52.25143 | 5.43212 | 16496 ft | 424 kts | 114° |
| 2026-05-04 20:13 | 52.24061 | 5.47701 | 17044 ft | 426 kts | 114° |
| 2026-05-04 20:13 | 52.22986 | 5.52147 | 17531 ft | 430 kts | 114° |
| 2026-05-04 20:14 | 52.21884 | 5.56703 | 17989 ft | 433 kts | 114° |
| 2026-05-04 20:14 | 52.20760 | 5.61347 | 18511 ft | 435 kts | 114° |
| 2026-05-04 20:14 | 52.19658 | 5.65882 | 18927 ft | 439 kts | 114° |
| 2026-05-04 20:14 | 52.18528 | 5.70527 | 19367 ft | 442 kts | 114° |
| 2026-05-04 20:15 | 52.17393 | 5.75186 | 19863 ft | 444 kts | 114° |
| 2026-05-04 20:15 | 52.16986 | 5.76851 | 20060 ft | 444 kts | 114° |
| 2026-05-04 20:16 | 52.16130 | 5.80356 | 20500 ft | 444 kts | 115° |
| 2026-05-04 20:16 | 52.14997 | 5.84977 | 20966 ft | 447 kts | 115° |
| 2026-05-04 20:16 | 52.13838 | 5.89693 | 21425 ft | 451 kts | 115° |
| 2026-05-04 20:17 | 52.12677 | 5.94433 | 22189 ft | 446 kts | 115° |
| 2026-05-04 20:17 | 52.11523 | 5.99115 | 22848 ft | 446 kts | 116° |
| 2026-05-04 20:17 | 52.10376 | 6.03748 | 23244 ft | 450 kts | 115° |
| 2026-05-04 20:17 | 52.09382 | 6.08676 | 23612 ft | 457 kts | 108° |
| 2026-05-04 20:18 | 52.08682 | 6.13650 | 24022 ft | 459 kts | 106° |
| 2026-05-04 20:18 | 52.08058 | 6.18788 | 24363 ft | 464 kts | 104° |
| 2026-05-04 20:18 | 52.07493 | 6.23963 | 24701 ft | 468 kts | 104° |
| 2026-05-04 20:18 | 52.06953 | 6.29195 | 25055 ft | 471 kts | 104° |
| 2026-05-04 20:19 | 52.06417 | 6.34474 | 25409 ft | 474 kts | 104° |
| 2026-05-04 20:19 | 52.05874 | 6.39780 | 25728 ft | 478 kts | 104° |
| 2026-05-04 20:19 | 52.05313 | 6.45159 | 25881 ft | 485 kts | 105° |
| 2026-05-04 20:19 | 52.04743 | 6.50571 | 26226 ft | 488 kts | 105° |
| 2026-05-04 20:20 | 52.04164 | 6.56021 | 26593 ft | 490 kts | 105° |
| 2026-05-04 20:20 | 52.03574 | 6.61512 | 26939 ft | 493 kts | 105° |
| 2026-05-04 20:20 | 52.02979 | 6.67010 | 27272 ft | 496 kts | 105° |
| 2026-05-04 20:20 | 52.02385 | 6.72461 | 27589 ft | 499 kts | 106° |
| 2026-05-04 20:21 | 52.01767 | 6.78100 | 27918 ft | 501 kts | 106° |
| 2026-05-04 20:21 | 52.01045 | 6.83558 | 28234 ft | 502 kts | 110° |
| 2026-05-04 20:21 | 51.99230 | 6.94594 | 28565 ft | 511 kts | 112° |
| 2026-05-04 20:22 | 51.98279 | 7.00168 | 28901 ft | 512 kts | 112° |
| 2026-05-04 20:22 | 51.97348 | 7.05739 | 29374 ft | 511 kts | 112° |
| 2026-05-04 20:22 | 51.96428 | 7.11307 | 29792 ft | 511 kts | 112° |
| 2026-05-04 20:22 | 51.95477 | 7.16845 | 30153 ft | 509 kts | 114° |
| 2026-05-04 20:23 | 51.94455 | 7.22333 | 30474 ft | 508 kts | 115° |
| 2026-05-04 20:23 | 51.93403 | 7.27802 | 30791 ft | 507 kts | 115° |
| 2026-05-04 20:23 | 51.92350 | 7.33242 | 31115 ft | 506 kts | 115° |